SWA7032 MDPC-KFLL
Flight info
| Callsign | SWA7032 |
|---|---|
| Flight time | N/A |
| Altitude | 38000 |
| Route | MALVN2T MALVN DCT RUMFO DCT ZQA OLAHS3 |
| Aircraft | B737/M-SDE2E3FGHIRWXY/LB1 |
Departure
| Time | 2026-05-08 13:18 |
|---|---|
| Airport | Punta Cana International Airport (MDPC) |
Arrival
| Time | N/A |
|---|---|
| Airport | Fort Lauderdale Hollywood International Airport (KFLL) |
| Time | Latitude | Longitude | Altitude | Speed | Heading |
|---|---|---|---|---|---|
| 2026-05-08 12:59 | 18.56389 | -68.36338 | 50 ft | 0 kts | 176° |
| 2026-05-08 13:12 | 18.56405 | -68.36339 | 50 ft | 4 kts | 176° |
| 2026-05-08 13:12 | 18.56432 | -68.36341 | 46 ft | 4 kts | 180° |
| 2026-05-08 13:12 | 18.56457 | -68.36336 | 46 ft | 4 kts | 212° |
| 2026-05-08 13:12 | 18.56472 | -68.36318 | 46 ft | 3 kts | 263° |
| 2026-05-08 13:13 | 18.56473 | -68.36315 | 46 ft | 1 kts | 265° |
| 2026-05-08 13:14 | 18.56477 | -68.36375 | 48 ft | 15 kts | 298° |
| 2026-05-08 13:14 | 18.56555 | -68.36439 | 49 ft | 15 kts | 283° |
| 2026-05-08 13:15 | 18.56546 | -68.36544 | 50 ft | 14 kts | 265° |
| 2026-05-08 13:15 | 18.56537 | -68.36646 | 50 ft | 15 kts | 265° |
| 2026-05-08 13:15 | 18.56526 | -68.36766 | 50 ft | 19 kts | 265° |
| 2026-05-08 13:15 | 18.56514 | -68.36921 | 49 ft | 23 kts | 265° |
| 2026-05-08 13:16 | 18.56498 | -68.37106 | 49 ft | 27 kts | 264° |
| 2026-05-08 13:16 | 18.56480 | -68.37301 | 49 ft | 26 kts | 264° |
| 2026-05-08 13:16 | 18.56463 | -68.37482 | 48 ft | 24 kts | 264° |
| 2026-05-08 13:16 | 18.56447 | -68.37649 | 46 ft | 23 kts | 264° |
| 2026-05-08 13:17 | 18.56494 | -68.37787 | 48 ft | 22 kts | 349° |
| 2026-05-08 13:17 | 18.56583 | -68.37794 | 44 ft | 12 kts | 3° |
| 2026-05-08 13:17 | 18.56619 | -68.37739 | 46 ft | 0 kts | 85° |
| 2026-05-08 13:17 | 18.56621 | -68.37710 | 46 ft | 24 kts | 85° |
| 2026-05-08 13:18 | 18.56666 | -68.37195 | 48 ft | 115 kts | 84° |
| 2026-05-08 13:18 | 18.56748 | -68.36119 | 264 ft | 171 kts | 88° |
| 2026-05-08 13:18 | 18.56840 | -68.34754 | 982 ft | 197 kts | 87° |
| 2026-05-08 13:18 | 18.56943 | -68.33322 | 2015 ft | 197 kts | 85° |
| 2026-05-08 13:19 | 18.57039 | -68.31848 | 2840 ft | 205 kts | 86° |
| 2026-05-08 13:19 | 18.57128 | -68.30283 | 3508 ft | 222 kts | 93° |
| 2026-05-08 13:19 | 18.56643 | -68.28687 | 4165 ft | 238 kts | 126° |
| 2026-05-08 13:19 | 18.55388 | -68.27475 | 4816 ft | 259 kts | 139° |
| 2026-05-08 13:20 | 18.53845 | -68.26437 | 4951 ft | 267 kts | 159° |
| 2026-05-08 13:20 | 18.52001 | -68.26271 | 4901 ft | 269 kts | 192° |
| 2026-05-08 13:20 | 18.50371 | -68.27188 | 5029 ft | 269 kts | 220° |
| 2026-05-08 13:20 | 18.48987 | -68.28598 | 5090 ft | 284 kts | 223° |
| 2026-05-08 13:21 | 18.47684 | -68.30173 | 5097 ft | 287 kts | 238° |
| 2026-05-08 13:21 | 18.47110 | -68.32177 | 5233 ft | 287 kts | 270° |
| 2026-05-08 13:21 | 18.47197 | -68.34236 | 6311 ft | 283 kts | 272° |
| 2026-05-08 13:21 | 18.47207 | -68.36353 | 7160 ft | 294 kts | 269° |
| 2026-05-08 13:22 | 18.47124 | -68.38528 | 8134 ft | 298 kts | 268° |
| 2026-05-08 13:22 | 18.47025 | -68.40683 | 9346 ft | 294 kts | 268° |
| 2026-05-08 13:22 | 18.46908 | -68.42865 | 10268 ft | 302 kts | 268° |
| 2026-05-08 13:22 | 18.46796 | -68.45139 | 10752 ft | 323 kts | 268° |
| 2026-05-08 13:23 | 18.46693 | -68.47585 | 10996 ft | 343 kts | 269° |
| 2026-05-08 13:23 | 18.46597 | -68.50115 | 11004 ft | 348 kts | 269° |
| 2026-05-08 13:23 | 18.46504 | -68.52660 | 11007 ft | 347 kts | 269° |
| 2026-05-08 13:23 | 18.46705 | -68.55175 | 11004 ft | 345 kts | 289° |
| 2026-05-08 13:24 | 18.47652 | -68.57510 | 11547 ft | 348 kts | 298° |
| 2026-05-08 13:24 | 18.48726 | -68.59782 | 12571 ft | 346 kts | 299° |
| 2026-05-08 13:24 | 18.49809 | -68.62049 | 13542 ft | 347 kts | 298° |
| 2026-05-08 13:24 | 18.50897 | -68.64336 | 14308 ft | 352 kts | 298° |
| 2026-05-08 13:25 | 18.51998 | -68.66665 | 15031 ft | 357 kts | 298° |
| 2026-05-08 13:25 | 18.53103 | -68.69018 | 15775 ft | 361 kts | 298° |
| 2026-05-08 13:25 | 18.54218 | -68.71404 | 16535 ft | 364 kts | 298° |
| 2026-05-08 13:25 | 18.55338 | -68.73807 | 17292 ft | 367 kts | 298° |
| 2026-05-08 13:26 | 18.56466 | -68.76233 | 18041 ft | 371 kts | 298° |
| 2026-05-08 13:26 | 18.57609 | -68.78690 | 18693 ft | 375 kts | 298° |
| 2026-05-08 13:26 | 18.58761 | -68.81172 | 19291 ft | 379 kts | 298° |
| 2026-05-08 13:26 | 18.59927 | -68.83683 | 19897 ft | 383 kts | 298° |
| 2026-05-08 13:27 | 18.61089 | -68.86187 | 20482 ft | 387 kts | 298° |
| 2026-05-08 13:27 | 18.62280 | -68.88752 | 21041 ft | 392 kts | 298° |
| 2026-05-08 13:27 | 18.63483 | -68.91344 | 21598 ft | 396 kts | 298° |
| 2026-05-08 13:27 | 18.64700 | -68.93969 | 22166 ft | 400 kts | 298° |
| 2026-05-08 13:28 | 18.65927 | -68.96616 | 22706 ft | 404 kts | 298° |
| 2026-05-08 13:28 | 18.67163 | -68.99283 | 23246 ft | 407 kts | 297° |
| 2026-05-08 13:28 | 18.68413 | -69.01982 | 23742 ft | 411 kts | 297° |
| 2026-05-08 13:28 | 18.69672 | -69.04703 | 24182 ft | 414 kts | 297° |
| 2026-05-08 13:29 | 18.70939 | -69.07442 | 24659 ft | 416 kts | 297° |
| 2026-05-08 13:29 | 18.72208 | -69.10188 | 25148 ft | 417 kts | 297° |
| 2026-05-08 13:29 | 18.73483 | -69.12948 | 25604 ft | 420 kts | 297° |
| 2026-05-08 13:29 | 18.74767 | -69.15726 | 26046 ft | 423 kts | 297° |
| 2026-05-08 13:30 | 18.76058 | -69.18524 | 26501 ft | 425 kts | 297° |
| 2026-05-08 13:30 | 18.77355 | -69.21334 | 26970 ft | 427 kts | 297° |
| 2026-05-08 13:30 | 18.78656 | -69.24155 | 27461 ft | 428 kts | 297° |
| 2026-05-08 13:30 | 18.79963 | -69.26991 | 27896 ft | 431 kts | 297° |
| 2026-05-08 13:31 | 18.81278 | -69.29844 | 28306 ft | 434 kts | 297° |
| 2026-05-08 13:31 | 18.82600 | -69.32713 | 28716 ft | 437 kts | 297° |
| 2026-05-08 13:31 | 18.83931 | -69.35606 | 29135 ft | 439 kts | 297° |
| 2026-05-08 13:31 | 18.85268 | -69.38511 | 29553 ft | 441 kts | 297° |
| 2026-05-08 13:32 | 18.86613 | -69.41437 | 29967 ft | 444 kts | 297° |
| 2026-05-08 13:32 | 18.87965 | -69.44378 | 30328 ft | 446 kts | 297° |
| 2026-05-08 13:32 | 18.89322 | -69.47333 | 30654 ft | 449 kts | 298° |
| 2026-05-08 13:32 | 18.90684 | -69.50299 | 31037 ft | 449 kts | 298° |
| 2026-05-08 13:33 | 18.92047 | -69.53269 | 31514 ft | 448 kts | 298° |
| 2026-05-08 13:33 | 18.93399 | -69.56219 | 32008 ft | 446 kts | 298° |
| 2026-05-08 13:33 | 18.94749 | -69.59166 | 32471 ft | 445 kts | 298° |
| 2026-05-08 13:33 | 18.96098 | -69.62109 | 32919 ft | 445 kts | 299° |
| 2026-05-08 13:34 | 18.97445 | -69.65050 | 33382 ft | 444 kts | 299° |
| 2026-05-08 13:34 | 18.98785 | -69.67978 | 33884 ft | 442 kts | 299° |
| 2026-05-08 13:34 | 19.00121 | -69.70898 | 34299 ft | 441 kts | 299° |
| 2026-05-08 13:34 | 19.01452 | -69.73809 | 34637 ft | 441 kts | 299° |
| 2026-05-08 13:35 | 19.02783 | -69.76722 | 34977 ft | 440 kts | 299° |
| 2026-05-08 13:35 | 19.04113 | -69.79632 | 35348 ft | 439 kts | 299° |
| 2026-05-08 13:35 | 19.05436 | -69.82531 | 35711 ft | 438 kts | 299° |
| 2026-05-08 13:35 | 19.06757 | -69.85426 | 36039 ft | 437 kts | 299° |
| 2026-05-08 13:36 | 19.08077 | -69.88319 | 36349 ft | 437 kts | 298° |
| 2026-05-08 13:36 | 19.09395 | -69.91208 | 36684 ft | 436 kts | 298° |
| 2026-05-08 13:36 | 19.10693 | -69.94057 | 37014 ft | 435 kts | 298° |
| 2026-05-08 13:36 | 19.12020 | -69.96972 | 37331 ft | 434 kts | 298° |
| 2026-05-08 13:37 | 19.13312 | -69.99808 | 37631 ft | 433 kts | 298° |
| 2026-05-08 13:37 | 19.14617 | -70.02676 | 37919 ft | 433 kts | 298° |
| 2026-05-08 13:37 | 19.15927 | -70.05557 | 38088 ft | 436 kts | 298° |
| 2026-05-08 13:37 | 19.17248 | -70.08461 | 38070 ft | 439 kts | 298° |
| 2026-05-08 13:38 | 19.19889 | -70.14275 | 38066 ft | 436 kts | 298° |
| 2026-05-08 13:38 | 19.22487 | -70.20005 | 38070 ft | 430 kts | 298° |
| 2026-05-08 13:39 | 19.25075 | -70.25713 | 38075 ft | 430 kts | 298° |
| 2026-05-08 13:39 | 19.27657 | -70.31415 | 38069 ft | 430 kts | 298° |
| 2026-05-08 13:40 | 19.30238 | -70.37120 | 38065 ft | 430 kts | 298° |
| 2026-05-08 13:40 | 19.32816 | -70.42824 | 38061 ft | 430 kts | 298° |
| 2026-05-08 13:41 | 19.35394 | -70.48534 | 38052 ft | 430 kts | 298° |
| 2026-05-08 13:41 | 19.37973 | -70.54254 | 38048 ft | 430 kts | 297° |
| 2026-05-08 13:42 | 19.40698 | -70.59888 | 38029 ft | 428 kts | 310° |
| 2026-05-08 13:42 | 19.42761 | -70.62115 | 38067 ft | 423 kts | 323° |
| 2026-05-08 13:42 | 19.45108 | -70.63990 | 38050 ft | 423 kts | 325° |
| 2026-05-08 13:43 | 19.49903 | -70.67614 | 38051 ft | 424 kts | 326° |
| 2026-05-08 13:43 | 19.54705 | -70.71255 | 38055 ft | 425 kts | 325° |
| 2026-05-08 13:44 | 19.59495 | -70.74946 | 38061 ft | 426 kts | 325° |
| 2026-05-08 13:44 | 19.64283 | -70.78666 | 38052 ft | 427 kts | 325° |
| 2026-05-08 13:45 | 19.69077 | -70.82400 | 38047 ft | 427 kts | 325° |
| 2026-05-08 13:45 | 19.73870 | -70.86136 | 38046 ft | 427 kts | 325° |
| 2026-05-08 13:46 | 19.78664 | -70.89874 | 38041 ft | 427 kts | 325° |
| 2026-05-08 13:46 | 19.83451 | -70.93610 | 38052 ft | 427 kts | 325° |
| 2026-05-08 13:47 | 19.88240 | -70.97349 | 38053 ft | 427 kts | 325° |
| 2026-05-08 13:47 | 19.93021 | -71.01086 | 38053 ft | 427 kts | 324° |
| 2026-05-08 13:48 | 19.97801 | -71.04825 | 38048 ft | 426 kts | 324° |
| 2026-05-08 13:48 | 20.02573 | -71.08560 | 38051 ft | 426 kts | 324° |
| 2026-05-08 13:49 | 20.07338 | -71.12293 | 38052 ft | 425 kts | 324° |
| 2026-05-08 13:49 | 20.12092 | -71.16020 | 38062 ft | 424 kts | 324° |
| 2026-05-08 13:50 | 20.16842 | -71.19746 | 38049 ft | 424 kts | 324° |
| 2026-05-08 13:50 | 20.21548 | -71.23442 | 38049 ft | 423 kts | 324° |
| 2026-05-08 13:51 | 20.26277 | -71.27158 | 38053 ft | 422 kts | 324° |
| 2026-05-08 13:51 | 20.30995 | -71.30868 | 38053 ft | 421 kts | 324° |
| 2026-05-08 13:52 | 20.34945 | -71.33977 | 38055 ft | 421 kts | 324° |
| 2026-05-08 13:52 | 20.39656 | -71.37687 | 38057 ft | 421 kts | 324° |
| 2026-05-08 13:53 | 20.43863 | -71.41983 | 38107 ft | 421 kts | 310° |
| 2026-05-08 13:53 | 20.47475 | -71.46920 | 38062 ft | 423 kts | 309° |
| 2026-05-08 13:54 | 20.51099 | -71.51863 | 38063 ft | 423 kts | 310° |
| 2026-05-08 13:54 | 20.54720 | -71.56759 | 38047 ft | 423 kts | 309° |
| 2026-05-08 13:55 | 20.58375 | -71.61680 | 38055 ft | 424 kts | 310° |
| 2026-05-08 13:56 | 20.63871 | -71.69076 | 38055 ft | 424 kts | 309° |
| 2026-05-08 13:56 | 20.67539 | -71.74018 | 38061 ft | 425 kts | 310° |
| 2026-05-08 13:57 | 20.71205 | -71.78961 | 38056 ft | 425 kts | 310° |
| 2026-05-08 13:57 | 20.74879 | -71.83920 | 38054 ft | 425 kts | 309° |
| 2026-05-08 13:58 | 20.78552 | -71.88882 | 38061 ft | 426 kts | 309° |
| 2026-05-08 13:58 | 20.82221 | -71.93843 | 38060 ft | 426 kts | 309° |
| 2026-05-08 13:59 | 20.85893 | -71.98813 | 38052 ft | 426 kts | 309° |
| 2026-05-08 13:59 | 20.89560 | -72.03779 | 38056 ft | 426 kts | 309° |
| 2026-05-08 14:00 | 20.93227 | -72.08751 | 38061 ft | 425 kts | 309° |
| 2026-05-08 14:00 | 20.96888 | -72.13719 | 38057 ft | 425 kts | 309° |
| 2026-05-08 14:01 | 21.00544 | -72.18683 | 38056 ft | 424 kts | 309° |
| 2026-05-08 14:01 | 21.04193 | -72.23644 | 38059 ft | 424 kts | 309° |
| 2026-05-08 14:02 | 21.07839 | -72.28604 | 38048 ft | 424 kts | 309° |
| 2026-05-08 14:02 | 21.11481 | -72.33564 | 38056 ft | 423 kts | 309° |